Current | Forecast
Updated: 3:00 PM JST on May 01, 2017
Observed at Nagasaki Airport, Japan
Temperature 72°F
Humidity 60%
Dew Point 57°F
Wind WSW at 10 mph
Pressure 30.01 in (Steady)
Conditions Partly Cloudy
Visibility 6.2 miles
UV 7 out of 16
Clouds (FEW) : 3500 ft
Yesterday's Maximum 73°F
Yesterday's Minimum 63°F approx.
Yesterday's Cooling Degree Days 3 approx.
Sunrise5:32 AM JST
Sunset7:00 PM JST
Moon Rise9:50 AM JST
Moon Set
Moon PhaseMoon Phase
Waxing Crescent
Raw METARMETAR RJFU 010600Z 25009KT 210V290 9999 FEW035 BKN/// 22/14 Q1016


Monday
. High: 64° F.
Tuesday
. High: 68° F.
Wednesday
. High: 66° F.
Thursday
. High: 64° F.
Friday
. High: 60° F.
Saturday
. High: 69° F.
Sunday
. High: 71° F.
Monday
. High: 71° F.

Units: English | Metric

Find the Weather for any City, State or Zipcode, or Country:

U.S. State List | Severe Weather | Tropical Storms | Ski Conditions
United States | Canada | Central America | South America | Asia | Europe | Australia | Africa | Islands

Weather Underground

© Copyright 2017
The Weather Company, LLC